< < Back
Terminal Aerodrome Forecast


Current Version              Previous Versions:   1  2  3  4  5  6  7  8  9  

Terminal Aerodrome Forecast

929
FTUS44 KMOB 111739
TAFMOB
TAF
KMOB 111739Z 1118/1218 23011G18KT P6SM SKC
     FM120000 20007KT P6SM SCT250
     FM120800 VRB04KT 3SM BR BKN010
     FM121600 26010KT P6SM SCT015 SCT250=



Latest METAR

670
SAUS80 KWBC 120900
MTRMOB
METAR KMOB 120856Z AUTO 24007KT 9SM SCT007 14/14 A3017 RMK AO2 SLP215
T01390139 55005 TSNO


USA.gov is the U.S. government's official web portal to all federal, state and local government web resources and services.